Time;durP1;ratioP1;P1;durP2;ratioP2;P2;SDS_P1;SDS_P2;PMS_P1;PMS_P2;Temp;Humidity;BMP_temperature;BMP_pressure;BME280_temperature;BME280_humidity;BME280_pressure;Samples;Min_cycle;Max_cycle;Signal;HPM_P1;HPM_P2
2021/11/17 08:02:15;;;;;;;22.70;10.40;;;;;;;4.12;100.00;99625.28;5119904;27;20910;-80
2021/11/17 08:04:44;;;;;;;27.75;10.80;;;;;;;4.21;100.00;99615.56;5114379;28;20123;-80
2021/11/17 08:07:13;;;;;;;22.80;10.93;;;;;;;4.24;100.00;99613.44;5109953;28;20046;-80
2021/11/17 08:09:41;;;;;;;24.20;11.50;;;;;;;4.37;100.00;99618.63;5110745;28;20795;-81
2021/11/17 08:12:08;;;;;;;26.02;11.60;;;;;;;4.50;100.00;99617.53;5109719;28;20497;-81
2021/11/17 08:14:35;;;;;;;23.15;10.38;;;;;;;4.49;100.00;99624.78;5110895;28;20570;-81
2021/11/17 08:17:02;;;;;;;25.92;10.95;;;;;;;4.56;100.00;99622.38;5109733;28;20052;-81
2021/11/17 08:19:30;;;;;;;26.42;11.05;;;;;;;4.54;100.00;99629.75;5110932;28;20449;-81
2021/11/17 08:21:57;;;;;;;20.77;9.68;;;;;;;4.46;100.00;99622.34;5129326;28;20093;-80
2021/11/17 08:24:24;;;;;;;33.47;10.07;;;;;;;4.38;100.00;99606.88;5109189;28;20101;-81
2021/11/17 08:26:51;;;;;;;18.20;7.63;;;;;;;4.36;100.00;99622.28;5105221;28;20138;-80
2021/11/17 08:29:18;;;;;;;17.25;7.43;;;;;;;4.23;100.00;99613.56;5130174;28;20047;-80
2021/11/17 08:31:44;;;;;;;20.20;7.93;;;;;;;4.24;100.00;99634.97;5118039;28;20109;-80
2021/11/17 08:34:11;;;;;;;17.05;6.60;;;;;;;4.21;100.00;99627.16;5109111;28;20260;-80
2021/11/17 08:36:39;;;;;;;16.38;6.10;;;;;;;4.31;100.00;99632.63;5115591;28;20108;-80
2021/11/17 08:39:06;;;;;;;15.18;6.15;;;;;;;4.31;100.00;99634.47;5129796;28;20125;-80
2021/11/17 08:41:33;;;;;;;12.65;5.30;;;;;;;4.47;100.00;99636.66;5108518;28;20047;-80
2021/11/17 08:44:00;;;;;;;19.00;6.35;;;;;;;4.34;100.00;99636.88;5109647;28;20055;-80
2021/11/17 08:46:27;;;;;;;12.48;6.18;;;;;;;4.35;100.00;99644.84;5109153;28;20445;-80
2021/11/17 08:48:56;;;;;;;12.27;4.93;;;;;;;4.30;100.00;99630.06;5122180;28;20055;-80
2021/11/17 08:51:29;;;;;;;9.27;4.93;;;;;;;4.30;100.00;99621.97;5129394;28;20474;-80
2021/11/17 08:54:00;;;;;;;9.68;5.32;;;;;;;4.35;100.00;99617.03;5122238;28;20126;-80
2021/11/17 08:56:27;;;;;;;11.05;4.88;;;;;;;4.41;100.00;99636.22;5107569;28;20116;-80
2021/11/17 08:58:54;;;;;;;9.55;5.95;;;;;;;4.47;100.00;99640.22;5103426;28;20051;-80
2021/11/17 09:01:24;;;;;;;10.65;4.72;;;;;;;4.41;100.00;99649.69;5129201;27;20044;-80
2021/11/17 09:03:50;;;;;;;;;;;;;;;4.46;100.00;99653.78;5129735;28;20497;-80
2021/11/17 09:06:17;;;;;;;12.98;4.32;;;;;;;4.43;100.00;99630.69;5109849;28;19973;-80
2021/11/17 09:08:44;;;;;;;8.27;4.47;;;;;;;4.46;100.00;99640.31;5108970;28;20060;-80
2021/11/17 09:11:16;;;;;;;9.68;4.22;;;;;;;4.57;100.00;99661.78;5122529;28;20044;-80
2021/11/17 09:13:43;;;;;;;9.57;4.65;;;;;;;4.39;100.00;99637.31;5103520;28;20461;-80
2021/11/17 09:16:10;;;;;;;12.23;4.53;;;;;;;4.53;100.00;99655.84;5103788;28;20056;-80
2021/11/17 09:18:39;;;;;;;12.07;4.63;;;;;;;4.56;100.00;99670.84;5115466;28;20432;-80
2021/11/17 09:21:08;;;;;;;10.77;4.60;;;;;;;4.50;100.00;99657.94;5110619;28;20040;-80
2021/11/17 09:23:35;;;;;;;10.70;5.43;;;;;;;4.53;100.00;99645.06;5094652;28;20084;-80
2021/11/17 09:26:03;;;;;;;10.00;4.53;;;;;;;4.58;100.00;99663.50;5094797;28;20056;-81
2021/11/17 09:28:34;;;;;;;10.93;4.95;;;;;;;4.58;100.00;99672.44;5114497;28;20065;-80
2021/11/17 09:31:03;;;;;;;7.40;3.85;;;;;;;4.63;100.00;99680.09;5107285;28;20044;-80
2021/11/17 09:33:30;;;;;;;7.40;3.53;;;;;;;4.64;100.00;99670.16;5097968;28;20052;-80
2021/11/17 09:35:58;;;;;;;8.55;4.30;;;;;;;4.59;100.00;99667.88;5094425;28;20294;-80
2021/11/17 09:38:25;;;;;;;9.63;3.83;;;;;;;4.74;100.00;99674.66;5095060;28;20044;-81
2021/11/17 09:40:54;;;;;;;10.13;4.40;;;;;;;4.92;100.00;99671.28;5094532;28;20395;-80
2021/11/17 09:43:24;;;;;;;9.90;4.13;;;;;;;5.12;100.00;99680.31;5095670;28;20048;-80
2021/11/17 09:45:55;;;;;;;7.38;3.70;;;;;;;5.09;100.00;99669.81;5094582;28;20047;-80
2021/11/17 09:48:26;;;;;;;4.90;3.20;;;;;;;5.00;100.00;99687.66;5093811;28;20051;-79
2021/11/17 09:50:57;;;;;;;6.80;3.05;;;;;;;4.97;100.00;99693.31;5094373;28;20477;-79
2021/11/17 09:53:28;;;;;;;6.95;3.10;;;;;;;4.91;100.00;99693.84;5094618;28;20056;-80
2021/11/17 09:56:01;;;;;;;6.20;3.15;;;;;;;4.88;100.00;99700.38;5096345;28;20475;-79
2021/11/17 09:58:31;;;;;;;6.95;3.03;;;;;;;4.82;100.00;99698.22;5096302;28;20063;-80
2021/11/17 10:01:01;;;;;;;;;;;;;;;4.91;100.00;99713.56;5114536;28;20044;-79
2021/11/17 10:03:38;;;;;;;4.43;2.45;;;;;;;4.84;100.00;99708.84;5106487;28;19934;-79
2021/11/17 10:14:51;;;;;;;4.57;2.80;;;;;;;4.58;100.00;99699.34;5087294;28;20055;-80
2021/11/17 10:17:51;;;;;;;6.95;2.83;;;;;;;4.70;100.00;99724.38;5094074;28;20044;-80
2021/11/17 10:20:26;;;;;;;3.72;2.40;;;;;;;4.58;100.00;99718.22;5059872;28;20063;-81
2021/11/17 10:23:15;;;;;;;7.95;2.63;;;;;;;4.57;100.00;99707.56;5102552;28;20123;-81
2021/11/17 10:25:45;;;;;;;6.05;2.40;;;;;;;4.52;100.00;99710.66;5093218;28;20052;-81
2021/11/17 10:28:13;;;;;;;4.93;2.55;;;;;;;4.48;100.00;99717.28;5093825;28;20058;-81
2021/11/17 10:30:58;;;;;;;6.88;2.80;;;;;;;4.54;100.00;99714.06;5092895;28;20072;-81
2021/11/17 10:33:42;;;;;;;3.70;2.38;;;;;;;4.60;100.00;99707.31;5094088;28;20411;-81
2021/11/17 10:36:20;;;;;;;4.63;2.28;;;;;;;4.59;100.00;99710.97;5093510;28;20044;-82
2021/11/17 10:38:54;;;;;;;2.55;1.80;;;;;;;4.59;100.00;99706.47;5093742;28;20044;-81
2021/11/17 10:41:24;;;;;;;4.32;2.17;;;;;;;4.50;100.00;99696.50;5093742;28;20052;-81
2021/11/17 10:43:54;;;;;;;4.30;2.53;;;;;;;4.52;100.00;99701.75;5093236;28;20044;-81
2021/11/17 10:46:25;;;;;;;5.68;2.25;;;;;;;4.48;100.00;99709.22;5095223;28;20055;-81
2021/11/17 10:48:56;;;;;;;5.03;2.58;;;;;;;4.46;100.00;99703.13;5087595;28;20044;-81
2021/11/17 10:51:26;;;;;;;4.30;2.25;;;;;;;4.56;100.00;99706.72;5072949;28;20135;-81
2021/11/17 10:53:57;;;;;;;5.43;2.78;;;;;;;4.56;100.00;99712.13;5102078;28;20043;-81
2021/11/17 10:56:25;;;;;;;4.70;2.47;;;;;;;4.49;100.00;99686.69;5109192;28;20056;-81
2021/11/17 10:58:56;;;;;;;5.00;2.30;;;;;;;4.65;100.00;99696.13;5113393;28;20470;-81
2021/11/17 11:01:27;;;;;;;5.57;2.78;;;;;;;4.72;100.00;99697.31;5113401;28;20043;-81
2021/11/17 11:03:59;;;;;;;3.53;2.40;;;;;;;4.77;100.00;99690.53;5113340;28;20047;-82
2021/11/17 11:06:30;;;;;;;4.22;2.58;;;;;;;4.83;100.00;99691.81;5113607;28;20082;-81
2021/11/17 11:09:04;;;;;;;3.10;2.00;;;;;;;4.74;100.00;99693.50;5099749;28;20044;-81
2021/11/17 11:11:35;;;;;;;3.47;2.00;;;;;;;4.70;100.00;99686.66;5092649;28;20055;-81
2021/11/17 11:14:12;;;;;;;2.90;1.90;;;;;;;4.73;100.00;99697.16;5092946;28;20097;-81
2021/11/17 11:16:42;;;;;;;3.47;2.20;;;;;;;4.85;100.00;99713.22;5092812;28;20097;-81
2021/11/17 11:19:32;;;;;;;3.60;2.20;;;;;;;4.89;100.00;99717.38;5092782;28;20086;-81
2021/11/17 11:22:23;;;;;;;6.10;2.35;;;;;;;4.85;100.00;99718.63;5092902;28;20071;-81
2021/11/17 11:24:53;;;;;;;2.40;1.90;;;;;;;4.79;100.00;99720.88;5086777;28;20048;-81
2021/11/17 11:27:32;;;;;;;3.72;2.15;;;;;;;4.95;100.00;99711.44;5091560;28;20501;-81
2021/11/17 11:30:35;;;;;;;1.38;1.25;;;;;;;5.01;100.00;99716.28;5091718;28;20044;-81
2021/11/17 11:33:22;;;;;;;2.80;1.50;;;;;;;4.98;100.00;99713.84;5091830;28;20575;-81
2021/11/17 11:36:30;;;;;;;2.13;1.77;;;;;;;5.00;100.00;99706.50;5092306;28;20079;-81
2021/11/17 11:39:34;;;;;;;1.73;1.40;;;;;;;5.01;100.00;99718.97;5056001;28;20410;-81
2021/11/17 11:42:32;;;;;;;2.67;1.48;;;;;;;5.09;100.00;99712.94;5067872;28;20044;-81
2021/11/17 11:45:03;;;;;;;4.30;1.80;;;;;;;5.03;100.00;99711.63;5087837;28;20048;-80
2021/11/17 11:47:52;;;;;;;1.85;1.48;;;;;;;5.14;100.00;99713.38;5072786;28;20048;-81
2021/11/17 11:50:49;;;;;;;1.80;1.20;;;;;;;5.10;100.00;99711.91;5039539;28;20052;-80
2021/11/17 11:53:19;;;;;;;1.33;1.15;;;;;;;4.98;100.00;99708.47;5072112;28;20044;-81
2021/11/17 11:55:57;;;;;;;;;;;;;;;4.94;100.00;99705.19;5072130;28;20040;-80
2021/11/17 11:58:36;;;;;;;2.97;1.50;;;;;;;4.81;100.00;99703.72;5072168;28;19920;-81
2021/11/17 12:01:08;;;;;;;3.30;1.70;;;;;;;4.82;100.00;99716.19;5061618;28;20043;-81
2021/11/17 12:03:38;;;;;;;3.95;1.38;;;;;;;4.82;100.00;99716.19;5071998;28;20068;-81
2021/11/17 12:06:08;;;;;;;7.57;1.30;;;;;;;4.74;100.00;99715.06;5084778;28;20048;-80
2021/11/17 12:08:59;;;;;;;3.42;1.40;;;;;;;4.82;100.00;99714.38;5092354;28;20116;-80
2021/11/17 12:11:31;;;;;;;3.78;1.60;;;;;;;4.80;100.00;99710.94;5083834;28;20132;-83
2021/11/17 12:14:05;;;;;;;2.17;1.30;;;;;;;4.89;100.00;99722.75;5093002;28;20048;-82
2021/11/17 12:16:36;;;;;;;3.10;1.38;;;;;;;4.96;100.00;99711.31;5091232;28;20060;-81
2021/11/17 12:19:06;;;;;;;2.15;1.52;;;;;;;4.92;100.00;99717.97;5079891;28;20060;-82
2021/11/17 12:21:50;;;;;;;3.03;1.50;;;;;;;4.97;100.00;99710.31;5100367;28;20048;-82
2021/11/17 12:24:25;;;;;;;2.80;1.75;;;;;;;4.89;100.00;99712.84;5092628;28;20052;-83
2021/11/17 12:27:03;;;;;;;2.08;1.45;;;;;;;4.96;100.00;99710.47;5096596;28;20487;-81
2021/11/17 12:29:33;;;;;;;2.45;1.50;;;;;;;4.92;100.00;99698.25;5095820;28;20064;-81
2021/11/17 12:32:07;;;;;;;1.50;1.40;;;;;;;4.99;100.00;99709.34;5090810;28;20052;-81
2021/11/17 12:34:53;;;;;;;4.40;1.50;;;;;;;5.01;100.00;99707.34;5088582;28;20458;-81
2021/11/17 12:37:24;;;;;;;3.63;1.35;;;;;;;5.01;100.00;99712.75;5077229;28;20044;-82
2021/11/17 12:39:54;;;;;;;2.28;1.40;;;;;;;4.94;100.00;99710.59;5095944;28;20048;-81
2021/11/17 12:42:36;;;;;;;3.08;1.80;;;;;;;4.89;100.00;99704.78;5111822;28;20043;-81
2021/11/17 12:45:20;;;;;;;3.33;2.10;;;;;;;4.89;100.00;99698.50;5075587;28;20052;-81
2021/11/17 12:48:00;;;;;;;1.77;1.50;;;;;;;4.95;100.00;99715.00;5093638;28;20052;-81
2021/11/17 12:50:40;;;;;;;;;;;;;;;4.94;100.00;99705.19;5101207;28;20052;-81
2021/11/17 12:53:10;;;;;;;2.55;1.45;;;;;;;4.93;100.00;99703.50;5098685;28;20298;-81
2021/11/17 12:55:47;;;;;;;5.18;1.30;;;;;;;4.91;100.00;99696.56;5114635;28;20067;-81
2021/11/17 12:58:21;;;;;;;3.03;1.98;;;;;;;4.95;100.00;99700.66;5095585;28;20059;-81
2021/11/17 13:00:57;;;;;;;2.65;1.55;;;;;;;4.96;100.00;99711.31;5103054;28;20520;-81
2021/11/17 13:03:36;;;;;;;3.65;1.77;;;;;;;5.02;100.00;99709.91;5095834;28;20048;-81
2021/11/17 13:06:21;;;;;;;9.50;1.52;;;;;;;4.96;100.00;99708.59;5097873;28;20086;-81
2021/11/17 13:09:05;;;;;;;2.92;1.90;;;;;;;5.01;100.00;99710.06;5089030;28;20059;-81
2021/11/17 13:11:33;;;;;;;2.28;1.55;;;;;;;5.06;100.00;99710.47;5105721;28;20047;-82
2021/11/17 13:14:34;;;;;;;1.90;1.30;;;;;;;5.10;100.00;99707.41;5114831;28;20056;-81
2021/11/17 13:17:08;;;;;;;3.15;1.85;;;;;;;5.06;100.00;99702.41;5110137;28;20036;-82
2021/11/17 13:19:41;;;;;;;3.25;1.40;;;;;;;4.99;100.00;99694.00;5094410;28;20105;-82
2021/11/17 13:22:31;;;;;;;1.60;1.30;;;;;;;4.96;100.00;99707.75;5100011;28;20044;-82
2021/11/17 13:25:20;;;;;;;2.85;1.40;;;;;;;4.93;100.00;99714.25;5083601;28;20563;-82
2021/11/17 13:27:53;;;;;;;2.30;1.58;;;;;;;4.88;100.00;99703.06;5107623;28;20058;-82
2021/11/17 13:30:33;;;;;;;3.35;2.25;;;;;;;4.77;100.00;99704.00;5115011;28;20051;-82
2021/11/17 13:33:27;;;;;;;2.03;1.50;;;;;;;4.84;100.00;99712.38;5100447;28;20105;-82
2021/11/17 13:36:07;;;;;;;2.00;1.70;;;;;;;4.75;100.00;99703.25;5094124;28;20079;-82
2021/11/17 13:38:44;;;;;;;3.92;1.88;;;;;;;4.69;100.00;99708.34;5105805;28;20555;-82
2021/11/17 13:41:11;;;;;;;3.53;1.55;;;;;;;4.68;100.00;99707.50;5097411;28;20122;-82
2021/11/17 13:43:39;;;;;;;2.22;1.77;;;;;;;4.69;100.00;99713.72;5094962;28;20044;-82
2021/11/17 13:46:13;;;;;;;2.50;1.80;;;;;;;4.57;100.00;99704.88;5094606;28;20048;-82
2021/11/17 13:48:43;;;;;;;5.03;1.75;;;;;;;4.76;100.00;99717.59;5099954;28;20047;-82
2021/11/17 13:51:11;;;;;;;3.28;2.20;;;;;;;4.74;100.00;99720.44;5115389;28;20482;-82
2021/11/17 13:53:39;;;;;;;2.88;1.70;;;;;;;4.69;100.00;99708.34;5114378;28;20172;-83
2021/11/17 13:56:09;;;;;;;2.28;1.80;;;;;;;4.74;100.00;99706.09;5094538;28;20048;-82
2021/11/17 13:58:36;;;;;;;3.92;2.40;;;;;;;4.85;100.00;99719.50;5101432;28;20071;-82
2021/11/17 14:01:06;;;;;;;2.78;1.73;;;;;;;4.83;100.00;99717.91;5094204;28;20052;-82
2021/11/17 14:03:34;;;;;;;2.97;1.92;;;;;;;4.87;100.00;99720.19;5094185;28;20044;-82
2021/11/17 14:06:04;;;;;;;2.28;1.85;;;;;;;4.88;100.00;99713.84;5094099;28;20041;-82
2021/11/17 14:08:32;;;;;;;4.83;2.43;;;;;;;4.85;100.00;99715.91;5104081;28;20048;-82
2021/11/17 14:10:59;;;;;;;4.28;2.03;;;;;;;4.93;100.00;99722.34;5114617;28;20289;-82
2021/11/17 14:13:27;;;;;;;2.95;1.90;;;;;;;4.95;100.00;99725.78;5104089;28;20499;-82
2021/11/17 14:15:56;;;;;;;4.25;1.83;;;;;;;5.00;100.00;99711.91;5087484;28;20063;-82
2021/11/17 14:18:26;;;;;;;4.05;2.13;;;;;;;4.99;100.00;99722.81;5077458;28;20044;-82
2021/11/17 14:20:54;;;;;;;3.83;1.67;;;;;;;5.01;100.00;99729.75;5093723;28;20102;-82
2021/11/17 14:23:21;;;;;;;3.53;2.33;;;;;;;5.03;100.00;99719.72;5093598;28;20048;-82
2021/11/17 14:25:48;;;;;;;2.75;1.88;;;;;;;4.92;100.00;99711.72;5111976;28;20050;-82
2021/11/17 14:28:17;;;;;;;5.88;2.40;;;;;;;4.94;100.00;99728.63;5114176;28;20048;-82
2021/11/17 14:30:47;;;;;;;4.72;2.35;;;;;;;4.88;100.00;99713.00;5102737;28;20048;-81
2021/11/17 14:33:17;;;;;;;4.65;2.47;;;;;;;4.86;100.00;99713.09;5093048;28;20047;-82
2021/11/17 14:35:47;;;;;;;5.15;2.38;;;;;;;5.06;100.00;99732.03;5093279;28;20075;-82
2021/11/17 14:38:18;;;;;;;;;;;;;;;5.07;100.00;99731.06;5095248;28;20044;-82
2021/11/17 14:40:45;;;;;;;3.45;2.45;;;;;;;5.08;100.00;99727.38;5073307;28;20446;-82
2021/11/17 14:43:12;;;;;;;6.63;2.42;;;;;;;5.09;100.00;99735.34;5101972;28;20051;-82
2021/11/17 14:45:40;;;;;;;3.67;2.63;;;;;;;5.02;100.00;99723.38;5113672;28;20140;-82
2021/11/17 14:48:07;;;;;;;4.93;2.33;;;;;;;5.01;100.00;99737.00;5101099;28;20048;-82
2021/11/17 14:50:34;;;;;;;5.65;2.33;;;;;;;5.01;100.00;99742.38;5085002;28;20044;-82
2021/11/17 14:53:01;;;;;;;4.80;2.83;;;;;;;4.92;100.00;99738.66;5093071;28;20098;-82
2021/11/17 14:55:30;;;;;;;7.53;3.20;;;;;;;5.07;100.00;99749.94;5072963;28;20059;-82
2021/11/17 14:57:59;;;;;;;6.18;3.03;;;;;;;5.02;100.00;99755.72;5072738;28;20044;-82
2021/11/17 15:00:31;;;;;;;3.85;2.50;;;;;;;4.94;100.00;99753.72;5093833;28;20048;-82
2021/11/17 15:03:05;;;;;;;4.65;2.53;;;;;;;4.99;100.00;99771.31;5091856;28;20072;-82
2021/11/17 15:05:32;;;;;;;4.63;2.60;;;;;;;4.97;100.00;99748.03;5097234;28;20066;-82
2021/11/17 15:08:03;;;;;;;4.35;2.67;;;;;;;4.89;100.00;99755.09;5093012;28;20258;-82
2021/11/17 15:10:31;;;;;;;4.38;2.45;;;;;;;4.83;100.00;99753.78;5094110;28;20105;-82
2021/11/17 15:12:58;;;;;;;2.80;2.00;;;;;;;4.88;100.00;99758.78;5092546;28;20052;-82
2021/11/17 15:15:31;;;;;;;5.63;2.65;;;;;;;4.99;100.00;99766.78;5103049;28;20490;-82
2021/11/17 15:17:58;;;;;;;5.13;2.33;;;;;;;4.92;100.00;99761.09;5113351;28;20051;-82
2021/11/17 15:20:27;;;;;;;6.05;2.60;;;;;;;4.88;100.00;99753.41;5095245;28;20055;-82
2021/11/17 15:22:55;;;;;;;3.30;2.20;;;;;;;5.09;100.00;99766.84;5095363;28;20395;-82
2021/11/17 15:25:24;;;;;;;7.80;2.65;;;;;;;5.02;100.00;99771.91;5073898;28;20055;-82
2021/11/17 15:27:55;;;;;;;3.30;2.25;;;;;;;5.04;100.00;99758.28;5099359;28;20056;-82
2021/11/17 15:30:28;;;;;;;6.55;3.05;;;;;;;5.01;100.00;99755.84;5112942;28;20139;-82
2021/11/17 15:32:56;;;;;;;5.13;2.47;;;;;;;4.89;100.00;99761.34;5102859;28;20552;-82
2021/11/17 15:35:25;;;;;;;4.13;2.28;;;;;;;4.93;100.00;99773.53;5091881;28;20479;-81
2021/11/17 15:37:53;;;;;;;4.13;2.72;;;;;;;4.91;100.00;99769.31;5092127;28;20043;-82
2021/11/17 15:40:23;;;;;;;4.85;3.03;;;;;;;5.05;100.00;99781.56;5074394;28;20052;-81
2021/11/17 15:42:52;;;;;;;4.07;2.38;;;;;;;4.90;100.00;99779.19;5073151;28;20056;-81
2021/11/17 15:45:22;;;;;;;5.82;2.70;;;;;;;5.01;100.00;99780.97;5072659;28;20052;-81
2021/11/17 15:47:51;;;;;;;3.97;2.30;;;;;;;4.86;100.00;99766.13;5088315;28;20051;-81
2021/11/17 15:50:25;;;;;;;5.32;2.30;;;;;;;4.95;100.00;99782.38;5090878;28;20051;-83
2021/11/17 15:52:58;;;;;;;5.60;3.05;;;;;;;4.91;100.00;99780.06;5074193;28;20048;-81
2021/11/17 15:55:25;;;;;;;5.10;2.90;;;;;;;4.88;100.00;99774.97;5073443;28;20099;-81
2021/11/17 15:57:52;;;;;;;7.88;3.10;;;;;;;4.90;100.00;99791.84;5083681;28;20048;-81
2021/11/17 16:00:24;;;;;;;4.00;2.53;;;;;;;4.82;100.00;99770.06;5092423;28;21966;-81
2021/11/17 16:02:51;;;;;;;5.40;2.70;;;;;;;4.99;100.00;99782.09;5073017;28;20051;-81
2021/11/17 16:05:20;;;;;;;7.28;3.03;;;;;;;4.93;100.00;99783.47;5072728;28;20484;-81
2021/11/17 16:07:47;;;;;;;5.35;2.28;;;;;;;4.84;100.00;99779.75;5083534;28;20048;-81
2021/11/17 16:10:23;;;;;;;8.77;2.60;;;;;;;4.95;100.00;99797.66;5093295;28;20496;-81
2021/11/17 16:12:52;;;;;;;5.50;2.78;;;;;;;4.96;100.00;99800.22;5092064;28;20121;-81
2021/11/17 16:15:21;;;;;;;6.68;3.50;;;;;;;4.95;100.00;99806.63;5088390;28;20048;-80
2021/11/17 16:17:48;;;;;;;10.88;5.97;;;;;;;4.80;100.00;99794.44;5088833;28;20055;-80
2021/11/17 16:20:19;;;;;;;7.55;4.13;;;;;;;4.90;100.00;99814.22;5091739;28;20075;-81
2021/11/17 16:23:02;;;;;;;7.57;4.57;;;;;;;4.95;100.00;99814.72;5092457;28;20670;-81
2021/11/17 16:25:35;;;;;;;9.20;4.28;;;;;;;4.93;100.00;99824.75;5095574;28;20548;-81
2021/11/17 16:28:07;;;;;;;7.05;3.30;;;;;;;4.95;100.00;99800.34;5096088;28;20464;-80
2021/11/17 16:30:36;;;;;;;6.85;3.08;;;;;;;4.92;100.00;99817.66;5104053;28;20111;-81
2021/11/17 16:33:03;;;;;;;7.00;3.47;;;;;;;5.09;100.00;99824.28;5095357;28;20124;-81
2021/11/17 16:35:33;;;;;;;7.43;4.07;;;;;;;4.98;100.00;99829.72;5098195;28;20110;-80
2021/11/17 16:38:00;;;;;;;6.95;4.03;;;;;;;4.96;100.00;99832.56;5095236;28;20141;-81
2021/11/17 16:40:30;;;;;;;10.15;3.78;;;;;;;5.07;100.00;99838.88;5094398;28;20395;-81
2021/11/17 16:42:57;;;;;;;12.88;4.78;;;;;;;4.96;100.00;99829.03;5089649;28;20105;-80
2021/11/17 16:45:24;;;;;;;7.68;3.80;;;;;;;4.84;100.00;99830.94;5094613;28;20060;-81
2021/11/17 16:47:53;;;;;;;4.53;2.92;;;;;;;4.79;100.00;99836.72;5095478;28;20483;-81
2021/11/17 16:50:24;;;;;;;8.70;3.95;;;;;;;4.90;100.00;99843.88;5094975;28;20439;-81
2021/11/17 16:52:53;;;;;;;5.05;3.00;;;;;;;4.87;100.00;99838.75;5095352;28;20052;-81
2021/11/17 16:55:24;;;;;;;6.57;3.53;;;;;;;4.87;100.00;99846.81;5092197;28;20483;-81
2021/11/17 16:57:55;;;;;;;5.63;2.97;;;;;;;4.90;100.00;99860.03;5097654;28;20048;-79
2021/11/17 17:00:24;;;;;;;6.28;3.50;;;;;;;4.88;100.00;99850.41;5094330;28;20060;-81
2021/11/17 17:02:53;;;;;;;6.95;3.80;;;;;;;4.89;100.00;99855.66;5100378;28;20591;-81
2021/11/17 17:05:25;;;;;;;13.30;3.90;;;;;;;4.89;100.00;99844.00;5113015;28;20071;-81
2021/11/17 17:07:52;;;;;;;8.43;4.18;;;;;;;4.90;100.00;99853.81;5095616;28;20290;-80
2021/11/17 17:10:22;;;;;;;8.00;4.40;;;;;;;4.91;100.00;99856.38;5095173;28;20044;-81
2021/11/17 17:12:52;;;;;;;10.05;4.22;;;;;;;4.94;100.00;99876.81;5092949;28;20048;-80
2021/11/17 17:15:22;;;;;;;8.55;4.35;;;;;;;4.97;100.00;99872.00;5091647;28;20119;-81
2021/11/17 17:17:50;;;;;;;10.55;5.68;;;;;;;4.92;100.00;99874.25;5113483;28;20056;-81
2021/11/17 17:20:21;;;;;;;10.57;5.72;;;;;;;4.99;100.00;99888.03;5103373;28;20052;-81
2021/11/17 17:22:49;;;;;;;11.57;5.60;;;;;;;4.90;100.00;99873.50;5093849;28;20055;-80
2021/11/17 17:25:18;;;;;;;12.00;5.57;;;;;;;4.97;100.00;99884.63;5086156;28;20672;-81
2021/11/17 17:27:45;;;;;;;9.98;4.47;;;;;;;5.02;100.00;99881.53;5093479;28;20055;-81
2021/11/17 17:30:18;;;;;;;8.50;4.68;;;;;;;5.05;100.00;99889.38;5092212;28;20113;-81
2021/11/17 17:32:51;;;;;;;6.90;4.50;;;;;;;4.95;100.00;99878.50;5093355;28;20040;-81
2021/11/17 17:35:19;;;;;;;10.02;4.72;;;;;;;5.02;100.00;99892.31;5093321;28;20482;-81
2021/11/17 17:37:47;;;;;;;10.57;4.50;;;;;;;4.95;100.00;99884.75;5094224;28;20048;-81
2021/11/17 17:40:18;;;;;;;14.63;4.25;;;;;;;4.96;100.00;99891.84;5093856;28;20044;-81
2021/11/17 17:42:45;;;;;;;8.80;4.82;;;;;;;4.94;100.00;99888.44;5092085;28;20083;-81
2021/11/17 17:45:16;;;;;;;10.15;5.20;;;;;;;4.95;100.00;99890.16;5093586;28;20040;-81
2021/11/17 17:47:43;;;;;;;8.75;4.85;;;;;;;4.97;100.00;99903.50;5094075;28;20043;-80
2021/11/17 17:50:11;;;;;;;8.73;4.65;;;;;;;5.01;100.00;99909.47;5093996;28;20044;-81
2021/11/17 17:52:40;;;;;;;8.30;4.72;;;;;;;5.04;100.00;99909.19;5092954;28;20105;-81
2021/11/17 17:55:09;;;;;;;10.20;5.35;;;;;;;5.05;100.00;99910.91;5093999;28;20044;-82
2021/11/17 17:57:36;;;;;;;8.40;5.35;;;;;;;4.99;100.00;99914.97;5094079;28;20052;-81
2021/11/17 18:00:09;;;;;;;8.00;5.00;;;;;;;5.04;100.00;99917.28;5093883;28;20105;-81
2021/11/17 18:02:36;;;;;;;10.68;5.70;;;;;;;5.03;100.00;99916.44;5092772;28;20151;-81
2021/11/17 18:05:04;;;;;;;10.88;5.30;;;;;;;5.01;100.00;99917.56;5097652;28;20043;-80
2021/11/17 18:07:31;;;;;;;12.55;6.55;;;;;;;5.11;100.00;99918.47;5114116;28;20165;-81
2021/11/17 18:10:02;;;;;;;11.20;5.40;;;;;;;5.05;100.00;99921.69;5093247;28;20044;-81
2021/11/17 18:12:29;;;;;;;10.15;6.05;;;;;;;5.04;100.00;99922.69;5109840;28;20047;-80
2021/11/17 18:14:56;;;;;;;16.38;8.02;;;;;;;4.97;100.00;99919.66;5097067;28;20097;-81
2021/11/17 18:17:23;;;;;;;9.93;6.03;;;;;;;4.94;100.00;99910.00;5097488;28;20052;-80
2021/11/17 18:19:50;;;;;;;14.80;7.35;;;;;;;5.08;100.00;99938.44;5093120;28;20090;-80
2021/11/17 18:22:16;;;;;;;10.57;6.32;;;;;;;5.10;100.00;99941.03;5092787;28;20040;-81
2021/11/17 18:24:43;;;;;;;13.85;6.65;;;;;;;5.02;100.00;99938.97;5093789;28;20101;-81
2021/11/17 18:27:14;;;;;;;9.40;5.80;;;;;;;4.97;100.00;99938.53;5093408;28;20048;-81
2021/11/17 18:29:44;;;;;;;9.40;5.10;;;;;;;5.04;100.00;99952.31;5092927;28;20052;-81
2021/11/17 18:32:15;;;;;;;12.20;5.82;;;;;;;5.00;100.00;99948.16;5091428;28;20094;-81
